Friday, April 29, 2016

  Over 48,494,314 pages visited!

GMT:
13:56
PACIFIC:
6:56:29 AM
MOUNTAIN:
7:56:29 AM

CENTRAL:
8:56:29 AM

EASTERN:
9:56:29 AM
ATLANTIC:
10:56:29 AM
NEWFOUNDLAND:
11:26:29 AM
 

 


Watches/Warnings
Current Conditions
Radar/Satellite
Lightning Images


Current Weather Conditions For TORONTO PEARSON,ON

 


Mostly Cloudy
 

Temperature: 07�C / 45�F
Dew Point: -8�C / 18�F
Humidity: 33 %
Pressure: 1019.7 mbs (30.11 inches)
Visibility: 24.1 kms (15 SM)
Wind Direction: ENE (080�)
Wind Speed: 22.2 Km/h (13.8 MPH)
Max Wind Gust: No Gusts
Humidex: N/A
WindChill: N/A
    

Observation Information

Date/Time: Friday, April 29, 2016 @ 13:00Z
Local Time:
Metar Coded: CYYZ 291300Z 08012KT 15SM BKN110 07/M08 A3009 RMK AC7 SLP197

 

 

                   1997-2016 The Ontario Weather Page